Time;durP1;ratioP1;P1;durP2;ratioP2;P2;SDS_P1;SDS_P2;PMS_P1;PMS_P2;Temp;Humidity;BMP_temperature;BMP_pressure;BME280_temperature;BME280_humidity;BME280_pressure;Samples;Min_cycle;Max_cycle;Signal;HPM_P1;HPM_P2
2024/04/10 00:02:10;;;;;;;11.77;2.97;;;8.70;99.90;;;;;;5349799;26;20004;-71
2024/04/10 00:04:35;;;;;;;14.07;4.00;;;8.60;99.90;;;;;;5349500;26;20071;-71
2024/04/10 00:07:01;;;;;;;19.02;4.45;;;8.60;99.90;;;;;;5349514;26;20075;-71
2024/04/10 00:09:26;;;;;;;14.57;4.35;;;8.60;99.90;;;;;;5349542;26;20008;-71
2024/04/10 00:11:52;;;;;;;14.57;4.63;;;8.60;99.90;;;;;;5349506;26;19996;-71
2024/04/10 00:14:17;;;;;;;10.85;4.05;;;8.70;99.90;;;;;;5349427;26;19993;-71
2024/04/10 00:16:43;;;;;;;17.08;3.90;;;8.60;99.90;;;;;;5349517;26;20009;-71
2024/04/10 00:19:08;;;;;;;19.20;4.50;;;8.60;99.90;;;;;;5349992;26;20451;-71
2024/04/10 00:21:35;;;;;;;15.50;4.00;;;8.60;99.90;;;;;;5349933;26;20327;-71
2024/04/10 00:24:01;;;;;;;14.10;3.70;;;8.60;99.90;;;;;;5349649;26;20431;-71
2024/04/10 00:26:27;;;;;;;18.48;4.18;;;8.60;99.90;;;;;;5349317;26;19993;-71
2024/04/10 00:28:52;;;;;;;12.20;4.05;;;8.70;99.90;;;;;;5348964;26;20019;-71
2024/04/10 00:31:18;;;;;;;16.67;3.45;;;8.70;99.90;;;;;;5349314;26;20012;-71
2024/04/10 00:33:43;;;;;;;9.02;3.60;;;8.60;99.90;;;;;;5349034;26;19999;-71
2024/04/10 00:36:10;;;;;;;22.00;4.43;;;8.60;99.90;;;;;;5349276;26;20007;-71
2024/04/10 00:38:35;;;;;;;8.98;2.83;;;8.50;99.90;;;;;;5349070;26;19997;-71
2024/04/10 00:41:03;;;;;;;16.15;3.08;;;8.50;99.90;;;;;;5349095;26;20011;-71
2024/04/10 00:43:29;;;;;;;14.80;3.95;;;8.60;99.90;;;;;;5349194;26;20001;-71
2024/04/10 00:46:04;;;;;;;17.75;3.67;;;8.60;99.90;;;;;;5348817;26;19997;-71
2024/04/10 00:48:29;;;;;;;16.02;3.80;;;8.50;99.90;;;;;;5349258;26;20000;-71
2024/04/10 00:50:57;;;;;;;13.25;3.63;;;8.60;99.90;;;;;;5348969;26;20331;-71
2024/04/10 00:53:23;;;;;;;18.80;4.13;;;8.60;99.90;;;;;;5349352;26;19997;-71
2024/04/10 00:55:48;;;;;;;14.98;4.05;;;8.60;99.90;;;;;;5348100;26;20004;-71
2024/04/10 00:58:14;;;;;;;15.18;4.13;;;8.70;99.90;;;;;;5348955;26;20078;-71
2024/04/10 01:00:40;;;;;;;15.15;4.28;;;8.60;99.90;;;;;;5348865;26;20001;-71
2024/04/10 01:03:06;;;;;;;22.77;4.13;;;8.70;99.10;;;;;;5348903;26;19993;-71
2024/04/10 01:05:32;;;;;;;20.95;4.30;;;8.70;98.30;;;;;;5349109;26;20446;-71
2024/04/10 01:07:57;;;;;;;17.27;3.78;;;8.70;98.20;;;;;;5349030;26;19997;-71
2024/04/10 01:10:23;;;;;;;14.95;3.58;;;8.70;98.40;;;;;;5348859;26;19993;-71
2024/04/10 01:12:49;;;;;;;20.65;3.70;;;8.70;96.00;;;;;;5348747;26;19996;-71
2024/04/10 01:15:15;;;;;;;16.45;3.63;;;8.70;95.90;;;;;;5349122;26;20363;-71
2024/04/10 01:17:40;;;;;;;17.17;3.58;;;8.60;95.80;;;;;;5348911;26;19997;-71
2024/04/10 01:20:07;;;;;;;24.75;4.90;;;8.70;94.20;;;;;;5348551;26;20003;-71
2024/04/10 01:22:34;;;;;;;15.13;3.70;;;8.70;93.20;;;;;;5348634;26;20385;-71
2024/04/10 01:24:59;;;;;;;16.63;3.33;;;8.60;96.30;;;;;;5348911;26;20037;-71
2024/04/10 01:27:25;;;;;;;20.17;3.90;;;8.60;96.40;;;;;;5348435;26;20001;-71
2024/04/10 01:29:50;;;;;;;17.50;3.58;;;8.50;97.10;;;;;;5348382;26;20004;-71
2024/04/10 01:32:16;;;;;;;22.65;3.88;;;8.50;97.60;;;;;;5348453;26;19997;-71
2024/04/10 01:34:43;;;;;;;26.73;4.93;;;8.40;98.50;;;;;;5348256;26;20000;-71
2024/04/10 01:37:08;;;;;;;24.63;3.85;;;8.50;99.90;;;;;;5348200;26;19997;-71
2024/04/10 01:39:34;;;;;;;18.23;4.38;;;8.40;99.90;;;;;;5348493;26;20004;-71
2024/04/10 01:42:00;;;;;;;20.92;3.72;;;8.50;96.90;;;;;;5348301;26;19997;-71
2024/04/10 01:44:25;;;;;;;15.90;3.80;;;8.50;95.10;;;;;;5347995;26;20004;-71
2024/04/10 01:46:52;;;;;;;18.60;3.55;;;8.60;94.50;;;;;;5348099;26;19997;-71
2024/04/10 01:49:18;;;;;;;15.75;3.53;;;8.50;94.40;;;;;;5348629;26;20003;-71
2024/04/10 01:51:43;;;;;;;18.30;3.45;;;8.50;93.10;;;;;;5348095;26;19997;-71
2024/04/10 01:54:09;;;;;;;15.98;4.00;;;8.50;92.50;;;;;;5348202;26;20025;-71
2024/04/10 01:56:34;;;;;;;15.35;3.45;;;8.50;94.60;;;;;;5347801;26;20008;-71
2024/04/10 01:59:00;;;;;;;15.18;3.53;;;8.50;90.30;;;;;;5347908;26;20024;-71
2024/04/10 02:01:25;;;;;;;18.63;3.60;;;8.50;89.30;;;;;;5347854;26;20136;-71
2024/04/10 02:03:51;;;;;;;14.93;3.42;;;8.50;85.20;;;;;;5347874;26;20079;-71
2024/04/10 02:06:17;;;;;;;15.98;3.15;;;8.40;84.80;;;;;;5347532;26;20080;-71
2024/04/10 02:08:42;;;;;;;19.23;3.78;;;8.50;89.40;;;;;;5346180;26;20066;-70
2024/04/10 02:11:26;;;;;;;18.08;3.95;;;8.50;85.90;;;;;;5348169;26;20008;-70
2024/04/10 02:13:51;;;;;;;;;;;8.50;83.40;;;;;;5348340;26;19993;-70
2024/04/10 02:16:17;;;;;;;18.48;3.75;;;8.50;87.60;;;;;;5347918;26;19926;-71
2024/04/10 02:18:42;;;;;;;16.40;3.42;;;8.40;84.50;;;;;;5347680;26;19993;-71
2024/04/10 02:21:08;;;;;;;16.80;3.30;;;8.40;82.60;;;;;;5347630;26;20320;-71
2024/04/10 02:23:34;;;;;;;23.15;3.75;;;8.40;85.90;;;;;;5347517;26;20351;-71
2024/04/10 02:26:10;;;;;;;23.25;3.45;;;8.30;90.60;;;;;;5347261;26;19997;-71
2024/04/10 02:28:36;;;;;;;18.63;3.58;;;8.30;90.80;;;;;;5347675;26;19997;-71
2024/04/10 02:31:01;;;;;;;24.23;3.75;;;8.30;90.30;;;;;;5347834;26;20032;-71
2024/04/10 02:33:27;;;;;;;22.33;3.78;;;8.20;90.50;;;;;;5347681;26;20058;-71
2024/04/10 02:35:53;;;;;;;16.73;3.42;;;8.20;90.30;;;;;;5347545;26;19992;-71
2024/04/10 02:38:18;;;;;;;18.08;4.10;;;8.20;91.20;;;;;;5347397;26;20007;-71
2024/04/10 02:40:44;;;;;;;18.58;3.55;;;8.20;89.70;;;;;;5347162;26;20004;-71
2024/04/10 02:43:09;;;;;;;21.13;4.50;;;8.20;91.20;;;;;;5347813;26;19988;-71
2024/04/10 02:45:35;;;;;;;15.52;3.72;;;8.30;90.30;;;;;;5347200;26;20000;-71
2024/04/10 02:48:01;;;;;;;20.45;4.55;;;8.30;83.70;;;;;;5347492;26;20435;-71
2024/04/10 02:50:27;;;;;;;16.42;3.47;;;8.20;88.10;;;;;;5347642;26;19993;-71
2024/04/10 02:52:52;;;;;;;21.50;3.47;;;8.20;88.00;;;;;;5347672;26;19993;-71
2024/04/10 02:55:18;;;;;;;20.23;3.78;;;8.20;87.70;;;;;;5347821;26;20003;-71
2024/04/10 02:57:43;;;;;;;16.67;4.07;;;8.20;87.80;;;;;;5347231;26;19996;-71
2024/04/10 03:00:11;;;;;;;19.63;4.28;;;8.20;86.80;;;;;;5347436;26;20339;-71
2024/04/10 03:02:37;;;;;;;20.63;4.05;;;8.20;86.40;;;;;;5347204;26;19994;-71
2024/04/10 03:05:04;;;;;;;32.33;4.18;;;8.20;86.90;;;;;;5347183;26;19989;-71
2024/04/10 03:07:30;;;;;;;20.08;3.72;;;8.20;89.50;;;;;;5347223;26;19993;-71
2024/04/10 03:09:56;;;;;;;15.00;3.83;;;8.20;90.70;;;;;;5347279;26;19993;-71
2024/04/10 03:12:21;;;;;;;22.67;4.10;;;8.30;90.20;;;;;;5347531;26;20420;-71
2024/04/10 03:14:48;;;;;;;25.30;4.00;;;8.30;91.20;;;;;;5347075;26;19989;-71
2024/04/10 03:17:16;;;;;;;18.52;4.00;;;8.30;90.40;;;;;;5347477;26;20067;-71
2024/04/10 03:19:41;;;;;;;20.58;4.13;;;8.30;90.00;;;;;;5348351;26;20157;-71
2024/04/10 03:22:08;;;;;;;19.90;4.30;;;8.30;89.00;;;;;;5350188;26;20001;-71
2024/04/10 03:24:34;;;;;;;24.23;5.07;;;8.30;83.20;;;;;;5350037;26;19996;-71
2024/04/10 03:26:59;;;;;;;20.00;3.78;;;8.30;85.40;;;;;;5350105;26;19993;-71
2024/04/10 03:29:26;;;;;;;16.17;4.10;;;8.20;89.60;;;;;;5349627;26;20343;-71
2024/04/10 03:31:53;;;;;;;19.48;4.22;;;8.30;90.20;;;;;;5349930;26;20067;-71
2024/04/10 03:34:18;;;;;;;22.02;4.18;;;8.20;90.50;;;;;;5349772;26;20328;-71
2024/04/10 03:36:44;;;;;;;20.23;4.45;;;8.20;92.20;;;;;;5349582;26;20074;-71
2024/04/10 03:39:11;;;;;;;25.08;4.20;;;8.20;90.40;;;;;;5349705;26;20000;-71
2024/04/10 03:41:37;;;;;;;19.52;4.63;;;8.10;92.10;;;;;;5349840;26;20454;-70
2024/04/10 03:44:05;;;;;;;20.92;4.00;;;8.10;94.20;;;;;;5349543;26;20071;-70
2024/04/10 03:46:32;;;;;;;24.33;3.72;;;8.10;95.20;;;;;;5349687;26;20450;-70
2024/04/10 03:48:57;;;;;;;17.33;4.05;;;8.10;96.60;;;;;;5349836;26;20447;-71
2024/04/10 03:51:23;;;;;;;17.23;3.88;;;8.10;97.60;;;;;;5350523;26;20001;-70
2024/04/10 03:53:49;;;;;;;21.88;4.65;;;8.10;97.10;;;;;;5349659;26;19993;-70
2024/04/10 03:56:14;;;;;;;18.75;3.78;;;8.10;95.80;;;;;;5349372;26;20028;-70
2024/04/10 03:58:40;;;;;;;22.05;4.60;;;8.20;96.00;;;;;;5349737;26;19992;-71
2024/04/10 04:01:05;;;;;;;16.25;3.65;;;8.20;95.40;;;;;;5349425;26;20008;-70
2024/04/10 04:03:33;;;;;;;19.45;4.22;;;8.20;95.10;;;;;;5349424;26;19992;-71
2024/04/10 04:06:00;;;;;;;21.17;4.72;;;8.20;93.60;;;;;;5349419;26;20512;-71
2024/04/10 04:08:26;;;;;;;19.38;4.32;;;8.20;94.40;;;;;;5349241;26;19989;-71
2024/04/10 04:10:54;;;;;;;20.58;4.22;;;8.30;94.80;;;;;;5349151;26;19999;-71
2024/04/10 04:13:19;;;;;;;22.95;4.55;;;8.30;96.50;;;;;;5349206;26;20005;-71
2024/04/10 04:15:45;;;;;;;23.48;5.03;;;8.30;95.30;;;;;;5349184;26;20000;-70
2024/04/10 04:18:11;;;;;;;25.42;4.18;;;8.30;95.40;;;;;;5349078;26;19993;-70
2024/04/10 04:20:36;;;;;;;30.70;5.05;;;8.20;94.60;;;;;;5349284;26;19999;-70
2024/04/10 04:23:02;;;;;;;26.05;4.95;;;8.20;95.90;;;;;;5349298;26;20024;-71
2024/04/10 04:25:30;;;;;;;18.95;4.18;;;8.20;96.90;;;;;;5349145;26;19996;-70
2024/04/10 04:27:56;;;;;;;18.05;4.28;;;8.20;99.10;;;;;;5348967;26;19993;-70
2024/04/10 04:30:22;;;;;;;22.15;4.97;;;8.20;97.90;;;;;;5348622;26;19993;-70
2024/04/10 04:32:48;;;;;;;23.60;4.82;;;8.20;98.60;;;;;;5348666;26;20000;-70
2024/04/10 04:35:14;;;;;;;22.30;4.97;;;8.20;98.90;;;;;;5348882;26;20001;-71
2024/04/10 04:37:40;;;;;;;26.45;4.82;;;8.20;97.20;;;;;;5349176;26;19997;-70
2024/04/10 04:40:06;;;;;;;18.77;4.40;;;8.20;98.70;;;;;;5348841;26;19989;-70
2024/04/10 04:42:32;;;;;;;28.98;5.43;;;8.20;98.20;;;;;;5348746;26;19993;-71
2024/04/10 04:44:58;;;;;;;23.73;5.03;;;8.30;98.90;;;;;;5348839;26;20021;-71
2024/04/10 04:47:23;;;;;;;23.48;5.25;;;8.30;97.60;;;;;;5349169;26;19989;-71
2024/04/10 04:49:49;;;;;;;16.80;4.65;;;8.30;97.90;;;;;;5349046;26;19999;-71
2024/04/10 04:52:14;;;;;;;24.67;4.75;;;8.30;96.10;;;;;;5349392;26;20062;-71
2024/04/10 04:54:40;;;;;;;22.90;4.88;;;8.30;95.60;;;;;;5348776;26;20004;-71
2024/04/10 04:57:09;;;;;;;18.13;5.05;;;8.30;95.50;;;;;;5348858;26;20004;-71
2024/04/10 04:59:35;;;;;;;25.75;4.55;;;8.30;95.30;;;;;;5348650;26;20439;-71
2024/04/10 05:02:00;;;;;;;24.77;5.30;;;8.30;95.20;;;;;;5348696;26;20066;-71
2024/04/10 05:07:11;;;;;;;24.63;4.50;;;8.30;96.60;;;;;;5348492;26;19997;-71
2024/04/10 05:09:37;;;;;;;23.38;4.68;;;8.30;94.70;;;;;;5348448;26;20004;-71
2024/04/10 05:12:03;;;;;;;20.02;4.47;;;8.30;94.40;;;;;;5348593;26;19989;-71
2024/04/10 05:14:28;;;;;;;25.73;4.75;;;8.30;95.30;;;;;;5348684;26;20008;-71
2024/04/10 05:16:54;;;;;;;15.63;4.30;;;8.30;93.40;;;;;;5348405;26;20028;-71
2024/04/10 05:19:19;;;;;;;21.25;5.15;;;8.30;93.70;;;;;;5348583;26;19989;-70
2024/04/10 05:21:45;;;;;;;18.85;4.40;;;8.30;93.80;;;;;;5348385;26;20067;-71
2024/04/10 05:24:10;;;;;;;22.80;5.13;;;8.30;93.00;;;;;;5348697;26;19993;-71
2024/04/10 05:26:36;;;;;;;22.55;4.80;;;8.30;93.40;;;;;;5348229;26;20067;-71
2024/04/10 05:29:02;;;;;;;22.77;5.32;;;8.40;93.80;;;;;;5348263;26;20074;-71
2024/04/10 05:31:27;;;;;;;23.95;5.38;;;8.40;94.00;;;;;;5348374;26;19999;-71
2024/04/10 05:33:53;;;;;;;25.38;5.10;;;8.40;93.70;;;;;;5348257;26;19993;-71
2024/04/10 05:36:18;;;;;;;24.13;5.75;;;8.50;93.10;;;;;;5348076;26;20067;-70
2024/04/10 05:38:45;;;;;;;24.42;6.53;;;8.50;91.50;;;;;;5348251;26;20087;-70
2024/04/10 05:41:10;;;;;;;25.02;5.72;;;8.50;91.30;;;;;;5348115;26;19989;-70
2024/04/10 05:43:36;;;;;;;19.20;5.05;;;8.40;90.70;;;;;;5347681;26;19993;-70
2024/04/10 05:46:02;;;;;;;27.65;5.30;;;8.40;91.00;;;;;;5347853;26;19993;-70
2024/04/10 05:48:28;;;;;;;24.75;4.90;;;8.40;91.60;;;;;;5347797;26;20091;-70
2024/04/10 05:50:57;;;;;;;20.85;6.00;;;8.40;93.60;;;;;;5348077;26;19989;-70
2024/04/10 05:53:23;;;;;;;24.60;5.25;;;8.40;92.90;;;;;;5347900;26;20326;-70
2024/04/10 05:55:49;;;;;;;29.02;5.50;;;8.40;94.50;;;;;;5347647;26;19997;-70
2024/04/10 05:58:18;;;;;;;27.60;5.80;;;8.50;94.90;;;;;;5347773;26;20067;-71
2024/04/10 06:00:43;;;;;;;27.85;5.80;;;8.40;95.20;;;;;;5347520;26;20016;-71
2024/04/10 06:03:09;;;;;;;22.58;5.53;;;8.40;96.60;;;;;;5347989;26;19997;-70
2024/04/10 06:05:35;;;;;;;22.67;5.85;;;8.50;98.10;;;;;;5347673;26;20005;-71
2024/04/10 06:08:00;;;;;;;28.48;6.32;;;8.50;99.90;;;;;;5347586;26;20443;-71
2024/04/10 06:10:26;;;;;;;26.77;6.18;;;8.50;99.90;;;;;;5347672;26;20001;-71
2024/04/10 06:12:52;;;;;;;22.75;5.88;;;8.60;99.90;;;;;;5347701;26;20316;-71
2024/04/10 06:15:17;;;;;;;20.65;5.50;;;8.60;99.90;;;;;;5347671;26;20008;-71
2024/04/10 06:17:43;;;;;;;24.10;6.20;;;8.60;99.90;;;;;;5347655;26;19993;-71
2024/04/10 06:20:11;;;;;;;18.67;5.40;;;8.60;99.90;;;;;;5347474;26;20009;-71
2024/04/10 06:22:37;;;;;;;25.08;6.13;;;8.70;99.90;;;;;;5347377;26;19997;-71
2024/04/10 06:25:03;;;;;;;19.95;4.97;;;8.70;99.90;;;;;;5347642;26;19997;-71
2024/04/10 06:27:28;;;;;;;21.27;5.53;;;8.60;99.90;;;;;;5347483;26;19997;-71
2024/04/10 06:29:54;;;;;;;24.83;6.13;;;8.60;99.90;;;;;;5347365;26;20005;-71
2024/04/10 06:32:19;;;;;;;21.63;6.10;;;8.60;99.90;;;;;;5347393;26;20070;-71
2024/04/10 06:34:45;;;;;;;26.92;6.38;;;8.60;99.90;;;;;;5347362;26;20008;-71
2024/04/10 06:37:11;;;;;;;26.17;5.68;;;8.60;99.90;;;;;;5347394;26;20016;-71
2024/04/10 06:39:36;;;;;;;24.65;6.70;;;8.70;99.90;;;;;;5347563;26;19997;-71
2024/04/10 06:42:02;;;;;;;25.65;6.05;;;8.70;99.90;;;;;;5347455;26;20005;-71
2024/04/10 06:44:28;;;;;;;19.00;5.68;;;8.80;99.90;;;;;;5347456;26;20004;-71
2024/04/10 06:46:53;;;;;;;23.17;6.47;;;8.70;99.90;;;;;;5347593;26;20004;-71
2024/04/10 06:49:20;;;;;;;22.05;6.15;;;8.80;99.90;;;;;;5347627;26;20008;-71
2024/04/10 06:51:45;;;;;;;23.70;6.90;;;8.80;99.90;;;;;;5347528;26;19997;-71
2024/04/10 06:54:11;;;;;;;27.10;6.85;;;8.80;99.90;;;;;;5346645;26;20004;-71
2024/04/10 06:56:37;;;;;;;27.85;7.55;;;8.70;99.90;;;;;;5347053;26;20071;-71
2024/04/10 06:59:03;;;;;;;27.60;7.68;;;8.70;99.90;;;;;;5347510;26;20000;-71
2024/04/10 07:01:28;;;;;;;20.75;6.88;;;8.70;99.90;;;;;;5347235;26;20064;-71
2024/04/10 07:03:54;;;;;;;20.77;6.43;;;8.70;99.90;;;;;;5347073;26;19997;-71
2024/04/10 07:06:19;;;;;;;19.67;7.38;;;8.80;99.90;;;;;;5347034;26;20040;-71
2024/04/10 07:08:48;;;;;;;17.38;7.10;;;8.80;99.90;;;;;;5347197;26;20066;-71
2024/04/10 07:11:16;;;;;;;25.75;6.95;;;8.80;99.90;;;;;;5347070;26;19997;-71
2024/04/10 07:13:45;;;;;;;23.63;6.85;;;8.90;99.90;;;;;;5346496;26;20079;-71
2024/04/10 07:16:11;;;;;;;25.90;7.00;;;9.10;99.90;;;;;;5346715;26;19993;-71
2024/04/10 07:18:36;;;;;;;19.58;6.93;;;9.20;99.90;;;;;;5346567;26;20479;-71
2024/04/10 07:21:05;;;;;;;25.30;7.53;;;9.20;99.90;;;;;;5346716;26;20074;-71
2024/04/10 07:23:32;;;;;;;28.80;6.20;;;9.30;99.90;;;;;;5346713;26;19997;-71
2024/04/10 07:26:20;;;;;;;16.90;7.03;;;9.30;99.90;;;;;;5346430;26;19997;-71
2024/04/10 07:28:52;;;;;;;27.33;7.57;;;9.50;99.90;;;;;;5346209;26;20070;-71
2024/04/10 07:31:20;;;;;;;21.75;7.32;;;9.60;99.90;;;;;;5346588;26;19993;-69
2024/04/10 07:33:46;;;;;;;23.15;6.72;;;9.80;98.40;;;;;;5346361;26;20040;-69
2024/04/10 07:36:14;;;;;;;22.75;7.53;;;9.90;97.20;;;;;;5346611;26;20005;-69
2024/04/10 07:38:41;;;;;;;25.63;8.00;;;9.80;92.70;;;;;;5346472;26;20005;-70
2024/04/10 07:41:08;;;;;;;21.33;7.00;;;9.70;95.40;;;;;;5346283;26;19993;-69
2024/04/10 07:43:34;;;;;;;26.30;8.23;;;9.80;99.70;;;;;;5346046;26;20352;-70
2024/04/10 07:46:17;;;;;;;27.83;7.93;;;10.00;96.60;;;;;;5345960;26;19997;-71
2024/04/10 07:48:44;;;;;;;22.98;8.38;;;10.00;99.80;;;;;;5346385;26;20443;-70
2024/04/10 07:51:12;;;;;;;24.60;9.05;;;9.90;99.90;;;;;;5345991;26;19997;-70
2024/04/10 07:53:40;;;;;;;23.40;8.18;;;9.80;99.90;;;;;;5346054;26;20009;-70
2024/04/10 07:56:07;;;;;;;26.88;8.45;;;9.70;99.90;;;;;;5345806;26;20067;-70
2024/04/10 07:58:34;;;;;;;26.35;8.70;;;9.70;99.90;;;;;;5345634;26;20428;-71
2024/04/10 08:01:00;;;;;;;25.10;8.68;;;9.80;99.90;;;;;;5346159;26;20004;-70
2024/04/10 08:03:29;;;;;;;28.25;9.48;;;9.80;99.90;;;;;;5345922;26;20005;-70
2024/04/10 08:05:56;;;;;;;23.77;8.57;;;9.80;99.90;;;;;;5347675;26;20458;-70
2024/04/10 08:08:22;;;;;;;31.17;9.88;;;9.80;99.90;;;;;;5349388;26;20084;-70
2024/04/10 08:10:55;;;;;;;25.17;10.27;;;9.80;99.90;;;;;;5349542;26;19997;-70
2024/04/10 08:13:21;;;;;;;36.15;12.73;;;9.80;99.90;;;;;;5349143;26;20012;-70
2024/04/10 08:16:05;;;;;;;32.13;12.70;;;9.70;99.90;;;;;;5349202;26;19993;-70
2024/04/10 08:18:32;;;;;;;29.02;12.40;;;9.70;99.90;;;;;;5349255;26;19993;-70
2024/04/10 08:21:00;;;;;;;28.15;12.52;;;9.80;99.90;;;;;;5349247;26;20374;-70
2024/04/10 08:23:30;;;;;;;34.15;12.70;;;9.70;99.90;;;;;;5348494;26;19993;-69
2024/04/10 08:25:57;;;;;;;32.58;13.80;;;9.70;99.90;;;;;;5349310;26;20354;-70
2024/04/10 08:28:25;;;;;;;31.73;12.85;;;9.70;99.90;;;;;;5348946;26;20463;-70
2024/04/10 08:30:51;;;;;;;30.75;14.15;;;9.80;99.90;;;;;;5348963;26;20000;-70
2024/04/10 08:33:17;;;;;;;32.85;15.07;;;9.70;99.90;;;;;;5349136;26;20001;-70
2024/04/10 08:35:43;;;;;;;36.95;14.73;;;9.70;98.80;;;;;;5349436;26;20066;-70
2024/04/10 08:38:08;;;;;;;33.65;14.75;;;9.80;99.90;;;;;;5348771;26;19997;-70
2024/04/10 08:40:38;;;;;;;36.25;14.35;;;9.80;99.90;;;;;;5348871;26;19997;-71
2024/04/10 08:43:06;;;;;;;32.17;15.25;;;9.80;98.10;;;;;;5348787;26;19997;-70
2024/04/10 08:45:32;;;;;;;37.78;16.08;;;9.90;99.90;;;;;;5348648;26;20326;-69
2024/04/10 08:48:00;;;;;;;23.95;14.88;;;9.90;99.30;;;;;;5348037;26;20495;-69
2024/04/10 08:50:26;;;;;;;38.15;15.93;;;9.90;95.80;;;;;;5348506;26;20467;-70
2024/04/10 08:52:54;;;;;;;31.10;14.90;;;10.00;95.70;;;;;;5348739;26;20520;-70
2024/04/10 08:55:21;;;;;;;30.17;14.63;;;10.00;88.70;;;;;;5348378;26;20316;-70
2024/04/10 08:57:47;;;;;;;30.38;14.77;;;10.20;96.50;;;;;;5348788;26;19993;-70
2024/04/10 09:00:13;;;;;;;36.78;13.90;;;10.30;92.40;;;;;;5348901;26;19997;-70
2024/04/10 09:02:38;;;;;;;26.30;12.15;;;10.40;86.10;;;;;;5348523;26;20070;-71
2024/04/10 09:05:04;;;;;;;27.88;10.98;;;10.30;78.80;;;;;;5348488;26;20007;-69
2024/04/10 09:07:30;;;;;;;27.70;11.80;;;10.30;73.40;;;;;;5348488;26;20005;-70
2024/04/10 09:10:08;;;;;;;25.48;10.60;;;10.50;80.90;;;;;;5348162;26;20316;-70
2024/04/10 09:12:33;;;;;;;25.52;11.15;;;10.50;65.60;;;;;;5348290;26;20074;-70
2024/04/10 09:15:11;;;;;;;29.35;11.07;;;10.70;44.70;;;;;;5347645;26;20004;-70
2024/04/10 09:17:37;;;;;;;27.27;11.60;;;10.70;52.00;;;;;;5347691;26;20442;-70
2024/04/10 09:20:11;;;;;;;37.03;12.50;;;10.70;43.50;;;;;;5348079;26;19997;-70
2024/04/10 09:22:37;;;;;;;33.33;11.48;;;10.80;33.90;;;;;;5347617;26;20001;-70
2024/04/10 09:25:11;;;;;;;34.20;12.80;;;10.80;36.20;;;;;;5348084;26;20048;-70
2024/04/10 09:27:37;;;;;;;24.88;11.23;;;11.00;32.60;;;;;;5348366;26;20443;-70
2024/04/10 09:30:03;;;;;;;27.90;12.32;;;11.10;25.30;;;;;;5348004;26;20066;-70
2024/04/10 09:32:32;;;;;;;31.60;11.57;;;11.30;17.40;;;;;;5348518;26;20004;-70
2024/04/10 09:34:58;;;;;;;28.92;13.95;;;11.60;1.30;;;;;;5348149;26;20336;-71
2024/04/10 09:37:25;;;;;;;31.77;14.93;;;11.60;1.00;;;;;;5347928;26;20000;-70
2024/04/10 09:39:52;;;;;;;32.33;14.32;;;11.70;1.00;;;;;;5347986;26;19993;-70
2024/04/10 09:42:31;;;;;;;28.00;14.68;;;11.60;1.00;;;;;;5347893;26;20083;-70
2024/04/10 09:45:11;;;;;;;25.30;14.48;;;11.60;1.00;;;;;;5347995;26;19997;-70
2024/04/10 09:47:39;;;;;;;31.95;15.15;;;11.70;1.00;;;;;;5347929;26;19993;-71
2024/04/10 09:50:08;;;;;;;27.40;15.43;;;11.70;1.00;;;;;;5348227;26;20012;-71
2024/04/10 09:52:34;;;;;;;31.42;14.82;;;11.80;1.00;;;;;;5348419;26;20001;-71
2024/04/10 09:55:00;;;;;;;30.65;15.32;;;12.30;1.00;;;;;;5348123;26;20059;-71
2024/04/10 09:57:27;;;;;;;30.05;15.63;;;13.00;1.00;;;;;;5348209;26;19997;-71
2024/04/10 09:59:54;;;;;;;24.25;14.57;;;13.00;99.90;;;;;;5348581;26;20066;-71
2024/04/10 10:02:19;;;;;;;27.20;14.18;;;13.10;1.00;;;;;;5347987;26;19993;-71
2024/04/10 10:04:45;;;;;;;30.27;14.38;;;13.20;1.00;;;;;;5347799;26;20008;-71
2024/04/10 10:07:20;;;;;;;27.08;13.50;;;13.00;1.00;;;;;;5347925;26;20000;-71
2024/04/10 10:09:46;;;;;;;25.10;14.32;;;13.20;99.90;;;;;;5348133;26;20012;-71
2024/04/10 10:12:12;;;;;;;29.77;15.07;;;13.00;99.90;;;;;;5347725;26;20440;-70
2024/04/10 10:14:37;;;;;;;30.58;15.95;;;12.50;1.00;;;;;;5347772;26;20447;-71
2024/04/10 10:17:10;;;;;;;30.25;15.60;;;12.50;1.00;;;;;;5347264;26;20011;-71
2024/04/10 10:19:37;;;;;;;30.92;15.98;;;12.30;99.90;;;;;;5347445;26;20140;-71
2024/04/10 10:22:03;;;;;;;33.15;17.63;;;12.10;99.90;;;;;;5347553;26;20004;-70
2024/04/10 10:24:29;;;;;;;28.40;17.88;;;11.90;1.00;;;;;;5347638;26;20012;-70
2024/04/10 10:26:59;;;;;;;28.52;18.15;;;11.80;99.90;;;;;;5347378;26;19997;-70
2024/04/10 10:29:26;;;;;;;32.30;18.25;;;11.80;99.90;;;;;;5345735;26;19997;-70
2024/04/10 10:32:05;;;;;;;33.05;17.98;;;11.80;99.90;;;;;;5347525;26;20000;-71
2024/04/10 10:34:31;;;;;;;32.15;18.27;;;11.80;1.00;;;;;;5346780;26;20005;-71
2024/04/10 10:37:06;;;;;;;38.70;19.17;;;11.70;99.90;;;;;;5345658;26;20007;-70
2024/04/10 10:39:32;;;;;;;32.38;18.60;;;11.60;1.00;;;;;;5345368;26;20378;-71
2024/04/10 10:42:00;;;;;;;33.30;18.10;;;11.60;99.90;;;;;;5346799;26;20375;-70
2024/04/10 10:44:26;;;;;;;34.58;17.40;;;11.80;1.00;;;;;;5346681;26;20136;-70
2024/04/10 10:46:52;;;;;;;36.50;18.02;;;11.80;1.00;;;;;;5346983;26;20013;-71
2024/04/10 10:50:57;;;;;;;36.22;17.63;;;12.00;1.00;;;;;;5471984;26;20422;-70
2024/04/10 10:53:24;;;;;;;31.67;16.67;;;12.30;1.00;;;;;;5435906;26;19987;-70
2024/04/10 10:55:51;;;;;;;34.30;17.52;;;12.50;1.00;;;;;;5435942;26;20390;-71
2024/04/10 10:58:17;;;;;;;40.50;16.95;;;12.50;1.00;;;;;;5435774;26;19991;-70
2024/04/10 11:00:42;;;;;;;35.10;16.38;;;12.50;99.90;;;;;;5436248;26;20002;-70
2024/04/10 11:03:10;;;;;;;33.25;16.55;;;12.60;99.90;;;;;;5435914;26;19991;-70
2024/04/10 11:05:37;;;;;;;28.38;14.80;;;12.60;99.90;;;;;;5435704;26;19992;-71
2024/04/10 11:08:03;;;;;;;21.50;13.07;;;12.90;22.10;;;;;;5435553;26;20068;-71
2024/04/10 11:10:30;;;;;;;32.53;14.30;;;12.90;99.90;;;;;;5435906;26;20019;-71
2024/04/10 11:13:01;;;;;;;25.08;13.43;;;13.00;99.90;;;;;;5436106;26;19988;-71
2024/04/10 11:15:27;;;;;;;21.27;13.07;;;13.40;99.90;;;;;;5435949;26;20057;-71
2024/04/10 11:18:02;;;;;;;23.38;12.85;;;13.20;1.00;;;;;;5435710;26;20016;-70
2024/04/10 11:20:32;;;;;;;25.92;12.77;;;13.00;1.00;;;;;;5435397;26;20041;-70
2024/04/10 11:23:00;;;;;;;26.45;14.18;;;13.20;99.90;;;;;;5435530;26;20001;-70
2024/04/10 11:25:25;;;;;;;25.65;13.43;;;13.30;1.00;;;;;;5435919;26;20002;-70
2024/04/10 11:27:51;;;;;;;24.80;12.23;;;13.50;1.00;;;;;;5435157;26;20007;-70
2024/04/10 11:30:16;;;;;;;23.33;11.77;;;13.50;1.00;;;;;;5435115;26;19987;-70
2024/04/10 11:32:42;;;;;;;21.00;11.75;;;13.30;99.90;;;;;;5435033;26;19995;-70
2024/04/10 11:35:13;;;;;;;19.30;11.48;;;13.40;99.90;;;;;;5435080;26;19991;-70
2024/04/10 11:37:39;;;;;;;18.98;9.50;;;13.50;1.00;;;;;;5435149;26;20473;-70
2024/04/10 11:40:11;;;;;;;18.05;8.85;;;13.50;84.30;;;;;;5435431;26;19992;-70
2024/04/10 11:42:38;;;;;;;15.90;8.52;;;13.80;1.00;;;;;;5435295;26;19995;-70
2024/04/10 11:45:07;;;;;;;15.18;8.18;;;13.80;1.00;;;;;;5435199;26;19992;-70
2024/04/10 11:47:33;;;;;;;16.10;9.05;;;13.90;1.00;;;;;;5435430;26;20302;-70
2024/04/10 11:49:59;;;;;;;17.15;8.73;;;14.40;99.90;;;;;;5435033;26;19998;-71
2024/04/10 11:52:25;;;;;;;17.65;8.60;;;14.40;99.90;;;;;;5435446;26;20390;-71
2024/04/10 11:54:50;;;;;;;17.60;9.23;;;14.80;1.00;;;;;;5435922;26;20432;-70
2024/04/10 11:57:16;;;;;;;15.70;8.40;;;15.00;99.90;;;;;;5433338;26;20010;-70
2024/04/10 11:59:41;;;;;;;18.73;8.57;;;15.00;99.90;;;;;;5419988;26;20010;-70
2024/04/10 12:02:07;;;;;;;14.43;8.52;;;14.90;99.90;;;;;;5406684;26;19995;-70
2024/04/10 12:04:32;;;;;;;18.45;7.97;;;14.90;99.90;;;;;;5394656;26;20062;-71
2024/04/10 12:07:00;;;;;;;10.57;6.18;;;14.80;99.90;;;;;;5419120;26;19988;-71
2024/04/10 12:09:25;;;;;;;14.25;6.30;;;14.80;99.90;;;;;;5383997;26;20011;-70
2024/04/10 12:11:52;;;;;;;12.38;6.40;;;14.90;99.90;;;;;;5383832;26;19988;-70
2024/04/10 12:14:17;;;;;;;15.75;7.18;;;14.70;99.90;;;;;;5407159;26;21490;-70
2024/04/10 12:16:43;;;;;;;12.00;6.63;;;14.60;99.90;;;;;;5419292;26;19995;-70
2024/04/10 12:19:09;;;;;;;15.65;7.20;;;14.90;69.70;;;;;;5417556;26;20006;-70
2024/04/10 12:21:34;;;;;;;9.60;5.53;;;15.30;99.90;;;;;;5413732;26;20007;-70
2024/04/10 12:24:02;;;;;;;15.38;5.57;;;15.50;1.00;;;;;;5406314;26;19999;-70
2024/04/10 12:26:33;;;;;;;9.80;5.95;;;15.70;99.90;;;;;;5418988;26;19995;-70
2024/04/10 12:28:59;;;;;;;13.00;6.15;;;15.70;88.70;;;;;;5419505;26;20016;-70
2024/04/10 12:31:25;;;;;;;9.80;5.85;;;15.30;99.90;;;;;;5406297;26;20010;-70
2024/04/10 12:33:51;;;;;;;11.27;5.65;;;15.60;99.90;;;;;;5394699;26;20069;-70
2024/04/10 12:39:05;;;;;;;12.68;6.32;;;15.00;99.90;;;;;;5409778;26;20357;-70
2024/04/10 12:41:30;;;;;;;14.90;6.15;;;15.00;99.90;;;;;;5418990;26;20003;-70
2024/04/10 12:43:59;;;;;;;10.65;5.38;;;14.70;99.90;;;;;;5419013;26;19998;-70
2024/04/10 12:46:27;;;;;;;11.90;4.93;;;14.70;99.90;;;;;;5382540;26;20036;-70
2024/04/10 12:48:54;;;;;;;11.10;5.30;;;14.40;99.90;;;;;;5356502;26;20418;-70